KHUA

Details ICAO KHUA (HUA)
Name REDSTONE AAF
Region United States
Timezone America/Chicago (UTC-6.0)
Plans Departing 5
Arriving 0
Stats Elevation 685 ft / 209 m (AMSL)
Location 34.678655° -86.684782°
Runways 1
Magnetic Variation 3.655° W
Sunrise 2017-12-16 12:48:43 UTC / 2017-12-16 06:48:43 Local
Sunset 2017-12-16 22:39:01 UTC / 2017-12-16 16:39:01 Local
Advertisement - Login to hide

Runways

ID Width Length Bearing (true) Bearing (mag) Surface Threshold Offset Overrun Length
17 150 ft / 46 m 7,319 ft / 2,231 m 169.53° 173.18° Asphalt 0 ft / 0 m 0 ft / 0 m
35 150 ft / 46 m 7,319 ft / 2,231 m 349.54° 353.19° Asphalt 0 ft / 0 m 0 ft / 0 m

Map

Weather


0- 5 10 15 20 25 30 35+ Temperature / ° C

Clouds and Precipitation
Forecast for 2017-12-17 00:00 UTC. Updated 2 hours ago

Ground ~20,000 ft ~40,000 ft Winds

METAR

KHUA 162258Z AUTO 19005KT 10SM BKN240 06/M01 A3020 RMK AO2 SLP233 T00621013

TAF

Not found

Frequencies

Unicom 126.95 MHz CTAF
Approach 124.80 MHz GCA
Approach 125.60 MHz HUNTSVILLE APP/DEP
Tower 126.95 MHz TWR
Approach 118.05 MHz HUNTSVILLE APP/DEP
Warning: Do not use this data for real-world aviation or navigation. No guarantee of current accuracy is given.